Time;durP1;ratioP1;P1;durP2;ratioP2;P2;SDS_P1;SDS_P2;PMS_P1;PMS_P2;Temp;Humidity;BMP_temperature;BMP_pressure;BME280_temperature;BME280_humidity;BME280_pressure;Samples;Min_cycle;Max_cycle;Signal;HPM_P1;HPM_P2
2021/12/17 00:00:56;;;;;;;12.13;5.70;;;;;;;9.12;78.43;99331.47;4471081;32;20112;-80
2021/12/17 00:03:34;;;;;;;11.60;5.50;;;;;;;9.75;76.14;99321.75;4471411;32;20450;-80
2021/12/17 00:06:15;;;;;;;12.13;4.85;;;;;;;9.55;75.82;99336.72;4471023;32;20507;-80
2021/12/17 00:08:45;;;;;;;9.15;4.07;;;;;;;8.89;78.13;99332.69;4471173;32;20498;-80
2021/12/17 00:11:12;;;;;;;11.77;4.72;;;;;;;9.17;75.44;99320.22;4457418;32;20097;-80
2021/12/17 00:13:42;;;;;;;12.18;5.70;;;;;;;8.56;77.92;99304.91;4470830;32;20089;-80
2021/12/17 00:16:17;;;;;;;11.12;4.90;;;;;;;8.86;76.03;99308.72;4456974;32;20168;-80
2021/12/17 00:49:01;;;;;;;12.18;5.20;;;;;;;7.11;80.92;99188.50;4459421;32;20076;-79
2021/12/17 00:54:28;;;;;;;12.52;4.72;;;;;;;7.27;79.61;99125.00;4472742;32;20188;-79
2021/12/17 00:56:58;;;;;;;9.65;3.95;;;;;;;7.04;81.62;99166.34;4459677;32;20084;-80
2021/12/17 00:59:25;;;;;;;12.60;4.78;;;;;;;7.21;80.96;99157.56;4472554;32;20580;-80
2021/12/17 01:01:55;;;;;;;9.00;4.40;;;;;;;6.89;82.04;99151.94;4458442;32;20115;-79
2021/12/17 01:04:22;;;;;;;12.13;5.50;;;;;;;6.66;83.67;99149.59;4458736;32;20144;-80
2021/12/17 01:06:49;;;;;;;11.35;4.43;;;;;;;6.85;81.90;99140.03;4472615;32;20076;-80
2021/12/17 01:09:18;;;;;;;9.55;4.00;;;;;;;6.81;81.59;99153.75;4472275;32;20443;-79
2021/12/17 01:11:46;;;;;;;10.18;4.43;;;;;;;6.88;79.86;99148.53;4472625;32;20113;-79
2021/12/17 01:14:13;;;;;;;10.13;4.10;;;;;;;6.83;81.61;99141.75;4472360;32;20128;-79
2021/12/17 01:16:40;;;;;;;11.02;4.32;;;;;;;6.79;81.12;99161.44;4458368;32;20086;-79
2021/12/17 01:19:19;;;;;;;11.12;4.90;;;;;;;6.48;82.28;99163.44;4472451;32;20145;-80
2021/12/17 01:35:31;;;;;;;10.10;4.07;;;;;;;7.06;78.34;99196.25;4472457;32;20117;-79
2021/12/17 01:43:04;;;;;;;8.18;3.75;;;;;;;6.79;78.69;99179.41;4459179;32;20120;-79
2021/12/17 01:45:36;;;;;;;9.70;3.92;;;;;;;6.61;78.88;99169.34;4472012;32;20106;-79
2021/12/17 01:48:09;;;;;;;10.13;3.83;;;;;;;6.57;78.77;99165.91;4472213;32;20089;-80
2021/12/17 02:01:43;;;;;;;8.52;3.05;;;;;;;6.86;76.52;99167.38;4471747;32;20455;-80
2021/12/17 02:04:10;;;;;;;7.87;3.22;;;;;;;6.49;77.54;99160.03;4458169;32;20550;-80
2021/12/17 02:06:38;;;;;;;9.40;3.62;;;;;;;6.57;77.49;99160.78;4471890;32;20168;-80
2021/12/17 02:09:57;;;;;;;8.90;3.03;;;;;;;6.70;76.65;99165.81;4472152;32;20101;-80
2021/12/17 02:12:23;;;;;;;8.88;3.62;;;;;;;6.64;77.46;99154.75;4459376;32;20153;-80
2021/12/17 02:29:00;;;;;;;9.80;4.03;;;;;;;6.58;79.69;99172.75;4471975;32;20499;-79
2021/12/17 02:31:30;;;;;;;9.25;3.62;;;;;;;6.67;78.24;99162.41;4459241;32;20151;-80
2021/12/17 02:34:02;;;;;;;9.45;4.05;;;;;;;6.75;78.45;99171.75;4471751;32;20666;-80
2021/12/17 02:36:33;;;;;;;9.40;3.78;;;;;;;6.50;77.41;99164.28;4458347;32;20168;-80
2021/12/17 02:47:18;;;;;;;8.23;3.45;;;;;;;6.42;77.23;99193.41;4471726;32;20097;-80
2021/12/17 02:49:47;;;;;;;8.18;3.33;;;;;;;6.58;76.81;99190.69;4471816;32;20476;-80
2021/12/17 02:52:14;;;;;;;8.68;3.50;;;;;;;6.69;76.34;99200.87;4457987;32;20081;-80
2021/12/17 02:54:42;;;;;;;7.70;2.83;;;;;;;6.78;76.37;99215.31;4471557;32;20553;-80
2021/12/17 02:57:10;;;;;;;5.90;2.70;;;;;;;6.93;76.15;99218.63;4471912;32;20135;-80
2021/12/17 02:59:38;;;;;;;9.50;4.07;;;;;;;6.68;76.73;99228.22;4471821;32;20099;-80
2021/12/17 03:02:08;;;;;;;9.73;3.85;;;;;;;6.51;77.83;99229.25;4457590;32;20861;-79
2021/12/17 03:04:40;;;;;;;10.57;3.95;;;;;;;6.56;78.09;99240.31;4471811;32;20457;-79
2021/12/17 03:07:12;;;;;;;10.38;4.10;;;;;;;6.63;78.51;99263.34;4472308;32;20133;-79
2021/12/17 03:12:14;;;;;;;9.27;3.35;;;;;;;6.67;78.36;99275.25;4480054;32;20057;-80
2021/12/17 03:14:49;;;;;;;9.90;3.80;;;;;;;6.77;78.38;99290.59;4482276;32;20734;-79
2021/12/17 03:17:29;;;;;;;10.00;4.15;;;;;;;6.73;78.28;99310.28;4461571;32;20152;-80
2021/12/17 03:25:08;;;;;;;8.07;3.42;;;;;;;6.61;79.49;99306.09;4471723;32;20103;-80
2021/12/17 03:27:35;;;;;;;9.00;3.72;;;;;;;6.98;78.74;99316.06;4471586;32;20096;-80
2021/12/17 03:30:02;;;;;;;;;;;;;;;6.89;78.49;99328.97;4471575;32;20148;-80
2021/12/17 03:32:29;;;;;;;8.70;3.17;;;;;;;6.85;78.99;99335.84;4471780;32;19988;-80
2021/12/17 03:34:56;;;;;;;10.15;3.87;;;;;;;7.00;78.53;99342.56;4471596;32;20149;-80
2021/12/17 03:37:23;;;;;;;10.32;3.78;;;;;;;6.75;79.97;99338.47;4471286;32;20165;-80
2021/12/17 03:39:50;;;;;;;;;;;;;;;7.43;77.16;99339.63;4471864;32;20495;-80
2021/12/17 03:42:17;;;;;;;10.30;3.95;;;;;;;7.37;76.82;99337.97;4471682;32;20042;-80
2021/12/17 03:44:44;;;;;;;11.20;4.53;;;;;;;7.74;76.13;99338.44;4471087;32;20155;-80
2021/12/17 03:47:11;;;;;;;11.60;4.78;;;;;;;7.38;77.48;99338.84;4471294;32;20101;-80
2021/12/17 03:49:40;;;;;;;12.70;5.00;;;;;;;7.54;76.26;99343.78;4471364;32;20117;-80
2021/12/17 03:52:07;;;;;;;10.48;4.62;;;;;;;7.28;77.14;99338.06;4471240;32;20179;-80
2021/12/17 03:54:35;;;;;;;;;;;;;;;7.59;76.61;99336.06;4457660;32;20141;-80
2021/12/17 03:57:05;;;;;;;10.18;4.37;;;;;;;7.34;77.12;99344.87;4471534;32;20066;-80
2021/12/17 03:59:33;;;;;;;9.98;3.95;;;;;;;7.66;75.85;99354.84;4470934;32;20109;-80
2021/12/17 04:02:00;;;;;;;11.73;4.70;;;;;;;7.18;77.71;99350.12;4471468;32;20101;-80
2021/12/17 04:04:27;;;;;;;11.48;4.80;;;;;;;8.29;73.33;99353.22;4470971;32;20144;-80
2021/12/17 04:06:54;;;;;;;14.05;4.90;;;;;;;7.95;74.18;99360.50;4471253;32;20108;-80
2021/12/17 04:09:23;;;;;;;11.85;5.03;;;;;;;7.43;76.31;99357.59;4471032;32;20175;-80
2021/12/17 04:11:50;;;;;;;12.35;5.75;;;;;;;7.31;76.37;99332.91;4470973;32;20148;-80
2021/12/17 04:14:19;;;;;;;12.88;5.20;;;;;;;7.41;76.68;99354.19;4470998;32;20134;-80
2021/12/17 04:16:46;;;;;;;13.80;4.90;;;;;;;7.41;76.05;99334.50;4471234;32;20092;-80
2021/12/17 04:19:13;;;;;;;12.13;5.22;;;;;;;8.07;73.55;99328.66;4470676;32;20149;-80
2021/12/17 04:21:44;;;;;;;13.32;5.43;;;;;;;7.53;74.95;99333.53;4471288;32;20088;-80
2021/12/17 04:24:11;;;;;;;14.60;5.15;;;;;;;8.29;72.50;99342.94;4474152;32;20604;-80
2021/12/17 04:26:38;;;;;;;13.25;5.47;;;;;;;8.03;72.47;99342.41;4475967;32;20096;-80
2021/12/17 04:29:06;;;;;;;14.77;6.03;;;;;;;7.57;74.80;99339.50;4476021;32;20156;-80
2021/12/17 04:31:33;;;;;;;12.68;5.50;;;;;;;8.29;71.93;99352.38;4476298;32;20089;-80
2021/12/17 04:34:00;;;;;;;;;;;;;;;7.99;72.58;99364.75;4476101;32;20160;-80
2021/12/17 04:36:30;;;;;;;15.13;6.60;;;;;;;7.94;73.00;99363.09;4476313;32;20303;-80
2021/12/17 04:38:59;;;;;;;14.10;5.90;;;;;;;8.10;72.52;99349.19;4476106;32;20119;-80
2021/12/17 04:44:10;;;;;;;14.87;6.05;;;;;;;8.11;71.51;99333.75;4476073;32;20575;-80
2021/12/17 04:46:47;;;;;;;12.77;5.60;;;;;;;7.94;72.00;99329.69;4475842;32;20116;-80
2021/12/17 04:57:34;;;;;;;13.15;4.80;;;;;;;7.10;76.23;99338.22;4475955;32;20114;-80
2021/12/17 05:00:07;;;;;;;13.98;5.95;;;;;;;7.67;73.44;99339.41;4475754;32;20152;-81
2021/12/17 05:02:41;;;;;;;13.40;5.75;;;;;;;7.67;73.14;99336.00;4475472;32;20424;-80
2021/12/17 05:05:10;;;;;;;14.70;5.53;;;;;;;7.29;74.64;99338.91;4462279;32;20115;-79
2021/12/17 05:07:41;;;;;;;12.90;5.60;;;;;;;7.49;73.53;99353.28;4475254;32;20128;-75
2021/12/17 05:10:20;;;;;;;14.30;5.25;;;;;;;7.92;72.16;99360.53;4448897;32;20155;-76
2021/12/17 05:20:57;;;;;;;12.95;5.28;;;;;;;7.66;70.94;99347.13;4475467;32;20147;-78
2021/12/17 05:23:33;;;;;;;12.55;4.93;;;;;;;8.12;69.12;99353.44;4475314;32;20092;-78
2021/12/17 05:26:03;;;;;;;13.13;5.18;;;;;;;7.79;69.68;99354.69;4475422;32;20132;-78
2021/12/17 05:28:30;;;;;;;11.57;4.22;;;;;;;7.86;69.98;99373.44;4460902;32;20119;-78
2021/12/17 05:30:57;;;;;;;16.80;5.12;;;;;;;7.60;69.78;99371.16;4461694;32;20155;-78
2021/12/17 05:33:25;;;;;;;13.70;4.50;;;;;;;7.69;69.37;99368.50;4461480;32;20151;-78
2021/12/17 05:35:53;;;;;;;12.05;4.07;;;;;;;8.37;67.52;99382.31;4472076;32;20107;-78
2021/12/17 05:38:21;;;;;;;11.68;4.47;;;;;;;7.37;69.87;99380.78;4472545;32;20518;-78
2021/12/17 05:40:49;;;;;;;11.77;4.55;;;;;;;7.35;71.04;99375.66;4472695;32;20104;-78
2021/12/17 05:43:16;;;;;;;11.43;4.20;;;;;;;7.40;70.67;99380.75;4458388;32;20111;-78
2021/12/17 05:48:23;;;;;;;9.15;3.80;;;;;;;7.95;69.17;99391.34;4459825;32;20152;-78
2021/12/17 05:50:53;;;;;;;14.85;4.55;;;;;;;7.46;70.14;99391.84;4472313;32;20140;-79
2021/12/17 05:53:20;;;;;;;10.00;3.65;;;;;;;7.22;70.70;99377.47;4472523;32;20499;-79
2021/12/17 05:55:47;;;;;;;10.00;4.15;;;;;;;7.35;70.56;99388.50;4472415;32;20148;-78
2021/12/17 05:58:15;;;;;;;13.00;4.87;;;;;;;6.97;72.07;99401.63;4458190;32;20156;-78
2021/12/17 06:00:43;;;;;;;10.88;4.32;;;;;;;7.42;70.35;99392.69;4472437;32;20132;-78
2021/12/17 06:03:10;;;;;;;11.63;4.90;;;;;;;8.16;67.24;99382.53;4472451;32;20111;-78
2021/12/17 06:05:38;;;;;;;9.77;3.85;;;;;;;7.76;67.87;99398.41;4458074;32;20439;-78
2021/12/17 06:08:05;;;;;;;8.68;2.78;;;;;;;7.78;67.80;99388.97;4472435;32;20545;-78
2021/12/17 06:10:32;;;;;;;13.25;3.25;;;;;;;7.71;65.87;99369.31;4458510;32;20506;-78
2021/12/17 06:12:59;;;;;;;7.47;2.83;;;;;;;7.01;68.55;99381.91;4458358;32;20397;-78
2021/12/17 06:15:26;;;;;;;;;;;;;;;7.01;67.88;99380.19;4472445;32;20149;-78
2021/12/17 06:17:54;;;;;;;9.75;2.75;;;;;;;6.73;68.55;99381.25;4472246;32;20024;-78
2021/12/17 06:20:24;;;;;;;8.38;2.70;;;;;;;7.49;65.73;99375.53;4458848;32;20238;-78
2021/12/17 06:22:52;;;;;;;6.40;2.30;;;;;;;7.17;66.36;99389.50;4472703;32;20115;-78
2021/12/17 06:25:20;;;;;;;12.50;3.42;;;;;;;6.93;68.78;99397.38;4472136;32;20673;-78
2021/12/17 06:27:47;;;;;;;6.82;2.80;;;;;;;6.66;69.99;99394.09;4472543;32;20093;-79
2021/12/17 06:30:16;;;;;;;8.07;2.55;;;;;;;7.20;68.04;99392.03;4472142;32;20137;-79
2021/12/17 06:32:42;;;;;;;8.55;2.97;;;;;;;7.53;65.93;99400.31;4472326;32;20179;-79
2021/12/17 06:35:10;;;;;;;9.52;2.92;;;;;;;7.61;66.94;99403.66;4472351;32;20344;-79
2021/12/17 06:37:40;;;;;;;7.53;3.05;;;;;;;6.86;68.41;99388.84;4472290;32;20137;-79
2021/12/17 06:40:08;;;;;;;11.02;3.33;;;;;;;7.04;68.25;99384.47;4471983;32;20494;-79
2021/12/17 06:42:36;;;;;;;8.60;3.17;;;;;;;7.81;64.15;99370.94;4472291;32;20502;-79
2021/12/17 06:45:08;;;;;;;8.20;2.50;;;;;;;7.52;65.61;99362.66;4472207;32;20491;-79
2021/12/17 06:47:37;;;;;;;9.52;3.65;;;;;;;7.23;65.61;99342.38;4458162;32;20114;-79
2021/12/17 07:06:05;;;;;;;10.52;4.07;;;;;;;8.40;62.22;99364.28;4475157;32;20104;-77
2021/12/17 07:11:01;;;;;;;9.38;3.20;;;;;;;8.13;63.65;99368.00;4476742;32;20148;-76
2021/12/17 07:24:47;;;;;;;9.15;3.33;;;;;;;8.25;63.40;99371.28;4470454;32;20431;-75
2021/12/17 07:32:50;;;;;;;11.50;3.65;;;;;;;8.33;62.34;99380.62;4453497;32;20111;-78
2021/12/17 07:40:33;;;;;;;12.25;2.95;;;;;;;7.91;63.49;99387.09;4471613;32;20146;-79
2021/12/17 07:43:11;;;;;;;8.07;2.97;;;;;;;7.91;63.70;99397.38;4471256;32;20093;-78
2021/12/17 07:45:39;;;;;;;8.20;2.90;;;;;;;8.27;62.33;99390.97;4458157;32;20089;-78
2021/12/17 07:48:06;;;;;;;11.38;2.37;;;;;;;8.05;63.14;99398.06;4469932;32;20126;-78
2021/12/17 07:50:34;;;;;;;8.65;2.95;;;;;;;8.22;62.91;99387.62;4468817;32;20093;-79
2021/12/17 07:53:01;;;;;;;14.82;3.42;;;;;;;8.46;61.56;99391.63;4469024;32;20156;-79
2021/12/17 07:55:28;;;;;;;8.25;2.90;;;;;;;8.57;60.77;99384.63;4455401;32;20089;-78
2021/12/17 07:57:55;;;;;;;10.85;3.95;;;;;;;8.29;61.61;99393.50;4453988;32;20495;-79
2021/12/17 08:00:22;;;;;;;9.65;3.00;;;;;;;8.79;60.44;99405.75;4469503;32;20410;-78
2021/12/17 08:02:49;;;;;;;9.93;2.85;;;;;;;8.43;61.46;99406.25;4469986;32;20147;-78
2021/12/17 08:05:18;;;;;;;11.25;3.25;;;;;;;9.09;59.65;99414.78;4471076;32;20089;-79
2021/12/17 08:07:45;;;;;;;8.48;2.45;;;;;;;10.12;56.55;99431.94;4457969;32;20099;-79
2021/12/17 08:10:12;;;;;;;10.30;3.00;;;;;;;9.30;58.27;99431.63;4456698;32;20101;-79
2021/12/17 08:12:39;;;;;;;8.25;2.70;;;;;;;9.62;56.98;99435.41;4471367;32;20104;-79
2021/12/17 08:15:09;;;;;;;11.05;3.08;;;;;;;9.43;57.38;99425.38;4469404;32;20155;-79
2021/12/17 08:18:16;;;;;;;11.88;3.28;;;;;;;8.93;59.17;99409.00;4472329;32;20474;-80
2021/12/17 08:26:22;;;;;;;11.30;3.15;;;;;;;9.18;58.92;99413.78;4471797;32;20542;-79
2021/12/17 08:29:11;;;;;;;9.20;2.70;;;;;;;8.31;61.52;99402.09;4470871;32;20127;-79
2021/12/17 08:31:38;;;;;;;11.60;3.25;;;;;;;8.53;62.26;99402.69;4470645;32;20100;-80
2021/12/17 08:34:05;;;;;;;13.95;3.40;;;;;;;8.82;60.60;99397.13;4456883;32;20493;-79
2021/12/17 08:36:32;;;;;;;11.23;2.97;;;;;;;9.30;58.33;99402.44;4470722;32;20097;-78
2021/12/17 08:38:59;;;;;;;12.35;3.45;;;;;;;9.68;57.29;99410.38;4470371;32;20120;-80
2021/12/17 08:41:28;;;;;;;9.70;2.60;;;;;;;9.04;60.01;99402.81;4470865;32;20414;-79
2021/12/17 08:43:55;;;;;;;14.23;3.30;;;;;;;8.56;60.81;99400.94;4470760;32;20106;-79
2021/12/17 08:46:22;;;;;;;12.63;2.90;;;;;;;8.92;60.02;99407.28;4470393;32;20135;-80
2021/12/17 08:48:49;;;;;;;8.30;2.80;;;;;;;9.83;57.20;99419.56;4470621;32;20167;-79
2021/12/17 08:51:17;;;;;;;8.23;2.47;;;;;;;8.30;62.23;99419.25;4470733;32;20093;-79
2021/12/17 08:53:44;;;;;;;9.65;2.85;;;;;;;9.19;60.19;99416.34;4470309;32;20110;-79
2021/12/17 08:56:15;;;;;;;8.30;3.30;;;;;;;8.92;60.65;99415.00;4470594;32;20128;-79
2021/12/17 08:58:42;;;;;;;11.00;3.03;;;;;;;8.37;63.30;99423.44;4470652;32;20458;-78
2021/12/17 09:01:08;;;;;;;10.07;2.67;;;;;;;8.52;61.41;99414.72;4470266;32;20115;-78
2021/12/17 09:03:35;;;;;;;9.38;3.15;;;;;;;9.13;59.82;99424.13;4470490;32;20084;-80
2021/12/17 09:06:03;;;;;;;7.57;2.80;;;;;;;9.14;58.92;99422.41;4470144;32;20435;-77
2021/12/17 09:08:29;;;;;;;8.70;3.05;;;;;;;8.62;61.85;99426.59;4470257;32;20092;-78
2021/12/17 09:10:57;;;;;;;12.35;2.97;;;;;;;9.07;60.21;99416.53;4472574;32;20104;-79
2021/12/17 09:13:25;;;;;;;10.02;2.75;;;;;;;8.27;62.19;99426.12;4472362;32;20084;-78
2021/12/17 09:15:57;;;;;;;10.65;3.22;;;;;;;8.33;62.28;99433.78;4472184;32;20132;-79
2021/12/17 09:18:25;;;;;;;8.75;3.12;;;;;;;8.74;61.23;99438.44;4472620;32;20120;-79
2021/12/17 09:20:52;;;;;;;10.52;3.08;;;;;;;9.06;61.07;99437.16;4445640;32;20148;-79
2021/12/17 09:23:19;;;;;;;8.52;3.35;;;;;;;9.62;58.77;99433.69;4472727;32;20169;-79
2021/12/17 09:25:51;;;;;;;9.88;3.20;;;;;;;9.74;58.10;99433.47;4472594;32;20079;-79
2021/12/17 09:28:18;;;;;;;13.95;4.15;;;;;;;10.08;57.20;99431.13;4472192;32;20175;-78
2021/12/17 09:30:46;;;;;;;11.02;2.85;;;;;;;8.98;60.38;99427.81;4472631;32;20158;-78
2021/12/17 09:33:13;;;;;;;10.63;2.87;;;;;;;7.86;63.75;99429.97;4472549;32;20127;-78
2021/12/17 09:35:40;;;;;;;8.70;2.72;;;;;;;8.30;64.00;99436.37;4472036;32;20088;-77
2021/12/17 09:38:08;;;;;;;10.00;3.25;;;;;;;8.74;61.56;99438.44;4472377;32;20127;-77
2021/12/17 09:40:35;;;;;;;11.70;3.42;;;;;;;8.17;64.06;99437.37;4472316;32;20115;-78
2021/12/17 09:43:02;;;;;;;10.80;3.42;;;;;;;9.02;62.78;99427.75;4472029;32;20156;-78
2021/12/17 09:45:29;;;;;;;11.38;3.40;;;;;;;9.66;59.14;99419.00;4458723;32;20407;-78
2021/12/17 09:47:56;;;;;;;12.93;3.37;;;;;;;10.12;57.17;99416.47;4472537;32;20536;-77
2021/12/17 09:50:23;;;;;;;8.50;3.15;;;;;;;9.36;59.74;99403.19;4472191;32;20101;-77
2021/12/17 09:52:52;;;;;;;9.00;3.00;;;;;;;9.06;60.09;99401.94;4457989;32;20160;-78
2021/12/17 09:55:19;;;;;;;9.32;3.28;;;;;;;7.94;63.94;99409.34;4471664;32;20469;-78
2021/12/17 10:04:48;;;;;;;9.45;2.95;;;;;;;8.61;62.18;99408.56;4472333;32;20146;-78
2021/12/17 10:07:29;;;;;;;10.45;3.12;;;;;;;8.17;62.73;99406.50;4458631;32;20092;-77
2021/12/17 10:09:58;;;;;;;7.00;2.95;;;;;;;9.14;60.16;99378.63;4471119;32;20144;-78
2021/12/17 10:12:27;;;;;;;11.23;3.30;;;;;;;8.34;63.20;99389.19;4472245;32;20107;-78
2021/12/17 10:15:09;;;;;;;12.15;3.67;;;;;;;8.81;61.70;99386.00;4471814;32;20101;-79
2021/12/17 10:17:51;;;;;;;9.82;2.90;;;;;;;9.18;60.36;99393.19;4471871;32;20105;-80
2021/12/17 10:20:20;;;;;;;7.97;2.37;;;;;;;9.38;59.16;99386.00;4458432;32;20084;-79
2021/12/17 10:22:56;;;;;;;12.68;3.60;;;;;;;9.33;58.50;99387.78;4471692;32;20194;-79
2021/12/17 10:25:23;;;;;;;10.45;3.08;;;;;;;8.04;63.00;99392.97;4472692;32;20156;-79
2021/12/17 10:27:55;;;;;;;9.98;2.62;;;;;;;8.07;63.32;99385.19;4472720;32;20108;-79
2021/12/17 10:30:23;;;;;;;15.88;4.47;;;;;;;8.39;62.67;99392.56;4473462;32;20114;-79
2021/12/17 10:32:54;;;;;;;9.23;3.15;;;;;;;8.85;60.26;99399.69;4472689;32;20112;-80
2021/12/17 10:35:32;;;;;;;11.02;3.12;;;;;;;8.60;61.21;99400.00;4459441;32;20144;-80
2021/12/17 10:38:03;;;;;;;5.93;2.22;;;;;;;8.77;60.77;99401.50;4472637;32;20433;-80
2021/12/17 10:40:40;;;;;;;8.45;3.12;;;;;;;8.69;61.00;99406.75;4459846;32;20176;-81
2021/12/17 10:43:19;;;;;;;9.98;2.47;;;;;;;8.39;61.96;99411.41;4473108;32;20110;-80
2021/12/17 10:46:05;;;;;;;13.95;3.10;;;;;;;8.36;62.34;99406.31;4473171;32;20507;-80
2021/12/17 10:48:48;;;;;;;11.23;2.97;;;;;;;7.65;64.76;99405.34;4460908;32;20458;-81
2021/12/17 10:54:07;;;;;;;10.77;2.83;;;;;;;8.54;60.96;99419.84;4472926;32;20148;-80
2021/12/17 10:56:39;;;;;;;11.43;2.30;;;;;;;7.73;63.33;99407.84;4473039;32;20130;-80
2021/12/17 10:59:21;;;;;;;9.15;3.17;;;;;;;7.90;64.46;99413.66;4472280;32;20110;-79
2021/12/17 11:01:55;;;;;;;10.65;3.20;;;;;;;8.31;63.38;99407.22;4472998;32;20115;-79
2021/12/17 11:04:24;;;;;;;7.45;2.35;;;;;;;8.79;61.00;99399.75;4473320;32;20089;-78
2021/12/17 11:06:57;;;;;;;9.38;3.30;;;;;;;8.66;60.97;99389.66;4474044;32;20085;-78
2021/12/17 11:09:43;;;;;;;7.30;2.47;;;;;;;9.08;59.24;99387.31;4475093;32;20166;-79
2021/12/17 11:12:12;;;;;;;11.68;3.15;;;;;;;9.21;57.71;99369.94;4472858;32;20097;-79
2021/12/17 11:14:40;;;;;;;10.35;2.92;;;;;;;9.39;57.16;99361.94;4471761;32;20430;-79
2021/12/17 11:17:11;;;;;;;10.43;3.25;;;;;;;9.09;58.99;99365.84;4472676;32;20142;-79
2021/12/17 11:20:03;;;;;;;9.68;3.00;;;;;;;10.11;55.78;99365.75;4461893;32;20088;-79
2021/12/17 11:22:30;;;;;;;9.90;3.08;;;;;;;9.54;56.95;99377.09;4459635;32;20443;-80
2021/12/17 11:25:00;;;;;;;9.63;3.10;;;;;;;9.78;56.83;99375.84;4472173;32;20117;-80
2021/12/17 11:27:28;;;;;;;8.45;2.60;;;;;;;10.32;54.63;99385.16;4471527;32;20119;-79
2021/12/17 11:29:56;;;;;;;10.10;3.15;;;;;;;9.06;59.74;99385.66;4474631;32;20151;-79
2021/12/17 11:32:23;;;;;;;10.00;3.03;;;;;;;9.81;56.96;99393.81;4473359;32;20435;-78
2021/12/17 11:34:50;;;;;;;11.20;3.05;;;;;;;10.08;55.61;99392.44;4472461;32;20107;-78
2021/12/17 11:37:18;;;;;;;11.05;2.70;;;;;;;9.12;59.05;99386.38;4474929;32;20117;-79
2021/12/17 11:39:56;;;;;;;11.75;3.25;;;;;;;9.18;58.72;99380.31;4460172;32;20133;-79
2021/12/17 11:42:54;;;;;;;10.40;3.20;;;;;;;9.86;57.12;99389.41;4458486;32;20587;-79
2021/12/17 11:45:25;;;;;;;13.00;3.03;;;;;;;10.21;56.55;99387.03;4472682;32;20527;-79
2021/12/17 11:47:57;;;;;;;10.10;3.12;;;;;;;8.29;60.33;99381.50;4458458;32;20195;-81
2021/12/17 11:50:25;;;;;;;11.65;3.60;;;;;;;9.63;57.52;99378.69;4458176;32;20093;-79
2021/12/17 11:52:53;;;;;;;12.27;3.45;;;;;;;9.94;57.05;99371.22;4472490;32;20098;-79
2021/12/17 11:55:20;;;;;;;11.23;3.30;;;;;;;10.19;55.72;99366.44;4471515;32;20115;-79
2021/12/17 11:57:49;;;;;;;11.68;2.67;;;;;;;10.43;55.14;99362.56;4472492;32;20439;-79
2021/12/17 12:00:23;;;;;;;9.48;3.00;;;;;;;9.74;56.91;99361.28;4471405;32;20097;-78
2021/12/17 12:02:55;;;;;;;9.88;2.97;;;;;;;10.20;55.68;99347.50;4471076;32;20171;-78
2021/12/17 12:05:40;;;;;;;9.65;3.72;;;;;;;10.01;55.94;99359.09;4457429;32;20101;-78
2021/12/17 12:08:31;;;;;;;8.43;2.78;;;;;;;9.94;56.89;99368.66;4471409;32;20613;-79
2021/12/17 12:11:17;;;;;;;9.25;3.00;;;;;;;9.50;57.09;99365.16;4457949;32;20108;-84
2021/12/17 12:13:49;;;;;;;12.40;3.35;;;;;;;9.70;56.75;99366.53;4457286;32;20179;-84
2021/12/17 12:16:18;;;;;;;9.38;2.80;;;;;;;10.77;54.31;99366.97;4470439;32;20585;-84
2021/12/17 12:18:54;;;;;;;10.07;3.00;;;;;;;10.91;53.13;99363.19;4456847;32;20123;-84
2021/12/17 12:21:25;;;;;;;9.60;3.10;;;;;;;11.21;53.66;99363.34;4457085;32;20173;-84
2021/12/17 12:23:57;;;;;;;12.02;3.45;;;;;;;11.18;52.34;99358.25;4456708;32;20156;-80
2021/12/17 12:26:27;;;;;;;11.05;3.40;;;;;;;11.09;52.34;99359.31;4457132;32;20387;-79
2021/12/17 12:29:00;;;;;;;11.07;3.83;;;;;;;10.37;54.77;99354.94;4470737;32;20112;-78
2021/12/17 12:31:35;;;;;;;9.48;3.05;;;;;;;10.61;54.42;99356.13;4471050;32;20459;-79
2021/12/17 12:34:07;;;;;;;11.10;2.97;;;;;;;10.67;53.99;99354.28;4471565;32;20182;-81
2021/12/17 12:36:58;;;;;;;11.73;3.10;;;;;;;10.10;57.02;99364.91;4470637;32;20106;-80
2021/12/17 12:39:38;;;;;;;8.88;2.72;;;;;;;10.38;55.31;99333.41;4470624;32;20093;-80
2021/12/17 12:42:33;;;;;;;9.73;2.95;;;;;;;11.07;51.53;99337.84;4468720;32;20110;-79
2021/12/17 12:45:00;;;;;;;11.05;3.15;;;;;;;10.57;53.65;99345.03;4466334;32;20092;-80
2021/12/17 12:47:27;;;;;;;7.25;2.40;;;;;;;10.43;53.92;99334.16;4470374;32;20093;-80
2021/12/17 12:49:56;;;;;;;7.87;2.90;;;;;;;9.77;54.55;99332.03;4470242;32;20105;-80
2021/12/17 12:52:29;;;;;;;8.85;3.35;;;;;;;9.01;58.37;99328.22;4470878;32;20119;-80
2021/12/17 12:55:24;;;;;;;8.60;2.70;;;;;;;8.74;58.25;99322.66;4472599;32;20106;-80
2021/12/17 12:57:53;;;;;;;10.60;2.97;;;;;;;8.82;59.68;99325.94;4472280;32;20247;-80
2021/12/17 13:00:29;;;;;;;11.95;3.35;;;;;;;10.48;53.64;99339.22;4472651;32;20160;-81
2021/12/17 13:03:06;;;;;;;9.93;2.62;;;;;;;9.72;55.57;99333.84;4458767;32;20103;-80
2021/12/17 13:05:34;;;;;;;10.15;3.22;;;;;;;9.58;56.32;99331.53;4472387;32;20069;-81
2021/12/17 13:08:04;;;;;;;7.82;2.62;;;;;;;10.06;55.16;99341.78;4472707;32;20100;-80
2021/12/17 13:10:41;;;;;;;9.20;3.10;;;;;;;10.14;54.72;99340.75;4472612;32;20164;-80
2021/12/17 13:16:06;;;;;;;14.60;3.85;;;;;;;9.58;57.36;99326.38;4472582;32;20457;-82
2021/12/17 13:24:10;;;;;;;9.30;3.25;;;;;;;9.11;58.61;99322.03;4460758;32;20085;-80
2021/12/17 13:26:41;;;;;;;8.07;3.15;;;;;;;8.62;60.30;99325.41;4458299;32;20073;-81
2021/12/17 13:29:14;;;;;;;12.00;3.47;;;;;;;9.46;57.59;99324.88;4458603;32;20105;-80
2021/12/17 13:31:46;;;;;;;14.32;3.08;;;;;;;9.21;57.61;99321.88;4472559;32;20152;-80
2021/12/17 13:34:22;;;;;;;8.68;2.83;;;;;;;8.64;59.83;99319.34;4472046;32;20076;-80
2021/12/17 13:36:59;;;;;;;9.02;2.97;;;;;;;8.44;60.44;99320.50;4472566;32;20470;-81
2021/12/17 13:39:37;;;;;;;10.60;3.62;;;;;;;8.49;60.10;99313.56;4473694;32;20153;-79
2021/12/17 13:42:06;;;;;;;9.57;3.10;;;;;;;9.06;58.59;99332.44;4474213;32;20139;-79
2021/12/17 13:44:38;;;;;;;12.55;3.65;;;;;;;9.22;58.42;99322.72;4461519;32;20232;-79
2021/12/17 13:47:11;;;;;;;7.37;2.50;;;;;;;8.82;59.59;99315.63;4473639;32;20128;-80
2021/12/17 13:49:44;;;;;;;9.25;2.95;;;;;;;8.50;60.08;99318.69;4472149;32;20104;-79
2021/12/17 13:52:11;;;;;;;8.75;3.17;;;;;;;9.09;59.48;99326.38;4473641;32;20631;-79
2021/12/17 13:54:39;;;;;;;9.40;3.30;;;;;;;8.58;61.19;99323.72;4472443;32;20084;-79
2021/12/17 13:57:07;;;;;;;10.95;3.28;;;;;;;9.41;59.32;99325.84;4471604;32;20143;-79
2021/12/17 13:59:36;;;;;;;10.18;3.25;;;;;;;9.29;59.70;99326.91;4472798;32;20100;-79
2021/12/17 14:02:11;;;;;;;6.85;2.20;;;;;;;9.55;59.04;99324.69;4472539;32;20102;-79
2021/12/17 14:04:39;;;;;;;10.25;3.78;;;;;;;9.49;58.48;99326.56;4472625;32;20081;-79
2021/12/17 14:07:08;;;;;;;11.55;3.20;;;;;;;9.78;57.22;99332.03;4458970;32;20094;-79
2021/12/17 14:09:36;;;;;;;13.13;3.78;;;;;;;9.44;58.26;99342.06;4472741;32;20115;-80
2021/12/17 14:12:31;;;;;;;8.70;2.92;;;;;;;9.44;58.84;99344.66;4473574;32;20101;-79
2021/12/17 14:15:20;;;;;;;11.65;3.22;;;;;;;9.18;60.07;99354.56;4473032;32;20137;-79
2021/12/17 14:17:52;;;;;;;8.30;2.60;;;;;;;9.10;60.53;99351.25;4473681;32;20375;-78
2021/12/17 14:20:22;;;;;;;10.82;3.05;;;;;;;8.63;61.43;99352.81;4473297;32;20143;-79
2021/12/17 14:22:53;;;;;;;11.10;3.42;;;;;;;9.01;59.98;99352.25;4473073;32;20131;-80
2021/12/17 14:25:40;;;;;;;11.75;3.80;;;;;;;9.09;60.36;99350.41;4474103;32;20156;-80
2021/12/17 14:28:13;;;;;;;9.27;3.27;;;;;;;9.22;60.42;99358.78;4472643;32;20081;-79
2021/12/17 14:30:44;;;;;;;9.77;3.10;;;;;;;8.82;61.35;99348.25;4471878;32;20627;-80
2021/12/17 14:33:14;;;;;;;10.70;3.55;;;;;;;9.08;58.84;99351.28;4472179;32;20096;-79
2021/12/17 14:35:47;;;;;;;9.20;3.20;;;;;;;9.39;58.26;99359.34;4472123;32;20099;-79
2021/12/17 14:38:16;;;;;;;6.25;2.30;;;;;;;9.77;56.76;99357.81;4458042;32;20104;-78
2021/12/17 14:40:53;;;;;;;10.75;3.33;;;;;;;7.44;64.61;99356.72;4472962;32;20461;-80
2021/12/17 14:43:24;;;;;;;;;;;;;;;8.42;59.82;99340.25;4458956;32;20127;-80
2021/12/17 14:46:07;;;;;;;8.75;2.58;;;;;;;8.32;61.21;99352.34;4472178;32;19968;-79
2021/12/17 14:48:46;;;;;;;12.20;3.53;;;;;;;7.97;62.69;99345.91;4471135;32;20092;-79
2021/12/17 15:04:49;;;;;;;10.95;3.83;;;;;;;8.80;58.19;99332.81;4471873;32;20140;-79
2021/12/17 15:07:23;;;;;;;11.68;3.75;;;;;;;10.26;55.07;99342.25;4471357;32;20084;-79